createdAt,value
2018-03-02T00:00:07.913Z,29.50
2018-03-02T00:02:35.506Z,35.07
2018-03-02T00:05:03.134Z,35.20
2018-03-02T00:07:30.776Z,35.40
2018-03-02T00:09:58.443Z,31.93
2018-03-02T00:12:26.854Z,33.47
2018-03-02T00:14:54.483Z,34.30
2018-03-02T00:17:22.845Z,34.00
2018-03-02T00:19:50.524Z,33.33
2018-03-02T00:22:18.223Z,33.00
2018-03-02T00:24:45.876Z,32.90
2018-03-02T00:27:14.246Z,32.40
2018-03-02T00:29:42.655Z,30.23
2018-03-02T00:32:10.331Z,28.80
2018-03-02T00:34:37.944Z,38.37
2018-03-02T00:37:06.346Z,35.63
2018-03-02T00:39:33.958Z,33.20
2018-03-02T00:42:03.061Z,35.73
2018-03-02T00:44:31.357Z,35.77
2018-03-02T00:46:59.717Z,34.80
2018-03-02T00:49:28.108Z,35.57
2018-03-02T00:51:57.399Z,39.20
2018-03-02T00:54:24.992Z,39.30
2018-03-02T00:56:53.432Z,41.00
2018-03-02T00:59:21.122Z,36.60
2018-03-02T01:01:49.484Z,39.83
2018-03-02T01:04:17.929Z,32.77
2018-03-02T01:06:45.866Z,38.57
2018-03-02T01:09:13.509Z,37.80
2018-03-02T01:11:41.238Z,38.13
2018-03-02T01:14:08.797Z,44.20
2018-03-02T01:16:36.454Z,41.63
2018-03-02T01:19:04.053Z,35.53
2018-03-02T01:21:31.694Z,33.07
2018-03-02T01:24:00.100Z,43.67
2018-03-02T01:26:27.735Z,37.00
2018-03-02T01:28:56.158Z,44.70
2018-03-02T01:31:25.994Z,34.73
2018-03-02T01:33:53.797Z,41.40
2018-03-02T01:36:22.479Z,37.37
2018-03-02T01:38:51.474Z,41.57
2018-03-02T01:41:19.882Z,39.43
2018-03-02T01:43:47.486Z,38.97
2018-03-02T01:46:15.418Z,38.60
2018-03-02T01:48:43.892Z,35.53
2018-03-02T01:51:23.492Z,42.83
2018-03-02T01:53:51.864Z,41.33
2018-03-02T01:56:20.234Z,44.73
2018-03-02T01:58:48.698Z,42.53
2018-03-02T02:01:16.314Z,41.43
2018-03-02T02:03:44.570Z,38.97
2018-03-02T02:06:12.939Z,39.83
2018-03-02T02:08:41.340Z,42.07
2018-03-02T02:11:08.986Z,38.90
2018-03-02T02:13:37.358Z,36.23
2018-03-02T02:16:05.733Z,44.90
2018-03-02T02:18:34.167Z,42.53
2018-03-02T02:21:01.807Z,37.93
2018-03-02T02:23:29.385Z,41.57
2018-03-02T02:25:57.006Z,34.70
2018-03-02T02:28:25.402Z,39.83
2018-03-02T02:30:53.004Z,38.13
2018-03-02T02:33:21.414Z,41.00
2018-03-02T02:35:49.790Z,40.57
2018-03-02T02:38:18.175Z,37.10
2018-03-02T02:40:45.827Z,42.30
2018-03-02T02:43:14.187Z,37.60
2018-03-02T02:45:42.580Z,42.30
2018-03-02T02:48:10.997Z,41.70
2018-03-02T02:50:38.589Z,40.43
2018-03-02T02:53:06.229Z,39.13
2018-03-02T02:55:33.886Z,43.33
2018-03-02T02:58:01.477Z,36.17
2018-03-02T03:00:30.623Z,46.60
2018-03-02T03:02:58.230Z,43.13
2018-03-02T03:05:25.866Z,40.67
2018-03-02T03:07:53.508Z,44.43
2018-03-02T03:10:21.126Z,39.07
2018-03-02T03:12:49.542Z,45.00
2018-03-02T03:15:17.164Z,38.73
2018-03-02T03:17:44.769Z,37.23
2018-03-02T03:20:12.408Z,45.57
2018-03-02T03:22:40.767Z,39.10
2018-03-02T03:25:09.130Z,44.27
2018-03-02T03:27:37.518Z,37.53
2018-03-02T03:30:06.658Z,39.17
2018-03-02T03:32:34.274Z,41.23
2018-03-02T03:35:01.900Z,42.53
2018-03-02T03:37:29.500Z,45.63
2018-03-02T03:39:57.891Z,43.17
2018-03-02T03:42:25.562Z,34.77
2018-03-02T03:44:53.194Z,38.27
2018-03-02T03:47:20.814Z,38.47
2018-03-02T03:49:48.417Z,39.03
2018-03-02T03:52:16.815Z,44.70
2018-03-02T03:54:44.413Z,41.03
2018-03-02T03:57:12.050Z,41.50
2018-03-02T03:59:39.647Z,43.13
2018-03-02T04:02:07.345Z,46.40
2018-03-02T04:04:35.703Z,43.77
2018-03-02T04:07:03.318Z,44.80
2018-03-02T04:09:30.973Z,36.10
2018-03-02T04:11:58.566Z,38.87
2018-03-02T04:14:26.162Z,43.10
2018-03-02T04:16:54.550Z,41.20
2018-03-02T04:19:22.926Z,39.53
2018-03-02T04:21:51.293Z,35.87
2018-03-02T04:24:19.685Z,34.80
2018-03-02T04:26:47.326Z,42.93
2018-03-02T04:29:15.725Z,41.20
2018-03-02T04:31:43.325Z,41.73
2018-03-02T04:34:10.954Z,43.47
2018-03-02T04:36:38.603Z,42.30
2018-03-02T04:39:06.967Z,36.07
2018-03-02T04:41:35.333Z,39.63
2018-03-02T04:44:02.970Z,40.17
2018-03-02T04:46:30.595Z,43.27
2018-03-02T04:48:58.253Z,41.10
2018-03-02T04:51:25.854Z,41.13
2018-03-02T04:53:53.455Z,40.83
2018-03-02T04:56:21.849Z,43.30
2018-03-02T04:58:55.659Z,42.10
2018-03-02T05:01:23.294Z,42.63
2018-03-02T05:03:52.331Z,37.67
2018-03-02T05:06:20.561Z,44.00
2018-03-02T05:08:48.980Z,40.43
2018-03-02T05:11:17.302Z,45.00
2018-03-02T05:13:45.667Z,42.37
2018-03-02T05:16:13.300Z,44.87
2018-03-02T05:18:40.950Z,48.97
2018-03-02T05:21:08.598Z,35.83
2018-03-02T05:23:36.250Z,41.70
2018-03-02T05:26:03.850Z,44.90
2018-03-02T05:28:31.476Z,41.93
2018-03-02T05:30:59.121Z,47.07
2018-03-02T05:33:27.488Z,45.47
2018-03-02T05:35:55.919Z,49.40
2018-03-02T05:38:23.550Z,42.70
2018-03-02T05:40:51.218Z,37.50
2018-03-02T05:43:18.829Z,39.10
2018-03-02T05:45:46.690Z,46.27
2018-03-02T05:48:14.324Z,41.40
2018-03-02T05:50:41.961Z,42.70
2018-03-02T05:53:09.605Z,46.90
2018-03-02T05:55:37.973Z,48.13
2018-03-02T05:58:06.379Z,44.17
2018-03-02T06:00:34.021Z,44.47
2018-03-02T06:03:02.393Z,44.80
2018-03-02T06:05:30.827Z,44.10
2018-03-02T06:07:58.694Z,39.30
2018-03-02T06:10:26.350Z,41.90
2018-03-02T06:12:53.992Z,41.97
2018-03-02T06:15:21.626Z,41.27
2018-03-02T06:17:50.035Z,42.00
2018-03-02T06:20:17.630Z,46.10
2018-03-02T06:22:45.325Z,37.30
2018-03-02T06:25:12.929Z,45.70
2018-03-02T06:27:40.576Z,42.07
2018-03-02T06:30:08.210Z,40.93
2018-03-02T06:32:36.577Z,39.27
2018-03-02T06:35:05.002Z,44.53
2018-03-02T06:37:32.602Z,45.27
2018-03-02T06:40:00.970Z,44.50
2018-03-02T06:42:28.608Z,48.53
2018-03-02T06:44:56.217Z,43.17
2018-03-02T06:47:23.822Z,45.47
2018-03-02T06:49:51.511Z,41.37
2018-03-02T06:52:19.909Z,45.93
2018-03-02T06:54:48.274Z,40.03
2018-03-02T06:57:15.877Z,43.90
2018-03-02T06:59:43.509Z,44.23
2018-03-02T07:02:11.875Z,42.17
2018-03-02T07:04:39.516Z,34.97
2018-03-02T07:07:07.108Z,45.23
2018-03-02T07:09:35.550Z,44.40
2018-03-02T07:12:03.186Z,45.33
2018-03-02T07:14:30.791Z,47.53
2018-03-02T07:16:58.427Z,51.20
2018-03-02T07:19:26.014Z,49.30
2018-03-02T07:21:53.644Z,46.60
2018-03-02T07:24:24.833Z,47.20
2018-03-02T07:26:53.318Z,46.00
2018-03-02T07:29:20.967Z,41.40
2018-03-02T07:31:49.365Z,40.43
2018-03-02T07:34:16.982Z,44.67
2018-03-02T07:36:44.621Z,39.47
2018-03-02T07:39:12.288Z,45.67
2018-03-02T07:41:39.893Z,38.83
2018-03-02T07:44:08.255Z,47.33
2018-03-02T07:46:35.935Z,40.80
2018-03-02T07:49:04.329Z,46.57
2018-03-02T07:51:31.944Z,43.13
2018-03-02T07:53:59.608Z,45.07
2018-03-02T07:56:27.267Z,39.30
2018-03-02T07:58:54.858Z,46.27
2018-03-02T08:01:22.558Z,44.57
2018-03-02T08:03:50.165Z,45.17
2018-03-02T08:06:18.570Z,50.53
2018-03-02T08:08:46.220Z,44.77
2018-03-02T08:11:31.440Z,44.23
2018-03-02T08:13:59.079Z,51.87
2018-03-02T08:16:26.694Z,49.10
2018-03-02T08:18:54.335Z,57.87
2018-03-02T08:21:21.942Z,48.57
2018-03-02T08:23:49.552Z,47.27
2018-03-02T08:26:17.178Z,51.10
2018-03-02T08:28:44.782Z,49.17
2018-03-02T08:31:12.385Z,56.30
2018-03-02T08:33:40.067Z,45.53
2018-03-02T08:36:07.710Z,51.07
2018-03-02T08:38:35.370Z,47.20
2018-03-02T08:41:03.594Z,41.60
2018-03-02T08:43:31.941Z,48.57
2018-03-02T08:45:59.542Z,48.70
2018-03-02T08:48:27.187Z,49.57
2018-03-02T08:50:54.843Z,49.43
2018-03-02T08:53:22.486Z,43.20
2018-03-02T08:55:50.158Z,45.70
2018-03-02T08:58:17.875Z,45.43
2018-03-02T09:00:45.466Z,43.97
2018-03-02T09:03:13.065Z,44.33
2018-03-02T09:05:41.464Z,45.67
2018-03-02T09:08:09.134Z,48.30
2018-03-02T09:10:36.749Z,52.77
2018-03-02T09:13:04.387Z,49.30
2018-03-02T09:15:31.987Z,55.10
2018-03-02T09:17:59.638Z,46.63
2018-03-02T09:20:27.251Z,49.73
2018-03-02T09:22:54.901Z,49.10
2018-03-02T09:25:22.497Z,44.53
2018-03-02T09:27:50.103Z,43.63
2018-03-02T09:30:18.506Z,45.10
2018-03-02T09:32:46.264Z,54.70
2018-03-02T09:35:15.174Z,44.50
2018-03-02T09:37:42.842Z,41.47
2018-03-02T09:40:10.484Z,49.30
2018-03-02T09:42:38.266Z,43.60
2018-03-02T09:45:05.938Z,45.70
2018-03-02T09:47:33.566Z,44.23
2018-03-02T09:50:01.613Z,47.37
2018-03-02T09:52:30.020Z,40.13
2018-03-02T09:54:57.662Z,42.03
2018-03-02T09:57:25.252Z,37.90
2018-03-02T09:59:52.903Z,44.80
2018-03-02T10:02:20.506Z,40.73
2018-03-02T10:04:48.134Z,41.47
2018-03-02T10:07:15.791Z,42.17
2018-03-02T10:09:43.456Z,42.27
2018-03-02T10:12:11.092Z,42.60
2018-03-02T10:14:38.735Z,45.57
2018-03-02T10:17:07.090Z,40.03
2018-03-02T10:19:34.724Z,49.30
2018-03-02T10:22:02.311Z,41.37
2018-03-02T10:24:29.918Z,46.73
2018-03-02T10:26:57.560Z,39.97
2018-03-02T10:29:25.937Z,46.33
2018-03-02T10:31:53.595Z,42.00
2018-03-02T10:34:21.960Z,44.00
2018-03-02T10:36:50.334Z,47.67
2018-03-02T10:39:18.775Z,43.77
2018-03-02T10:41:46.461Z,45.87
2018-03-02T10:44:14.134Z,42.60
2018-03-02T10:46:41.869Z,42.33
2018-03-02T10:49:10.600Z,45.53
2018-03-02T10:51:38.252Z,43.50
2018-03-02T10:54:06.858Z,38.63
2018-03-02T10:56:34.492Z,41.17
2018-03-02T10:59:02.902Z,36.07
2018-03-02T11:01:30.499Z,40.43
2018-03-02T11:04:01.116Z,34.33
2018-03-02T11:06:28.738Z,38.73
2018-03-02T11:08:56.356Z,42.73
2018-03-02T11:11:24.012Z,47.30
2018-03-02T11:13:57.032Z,45.63
2018-03-02T11:16:24.676Z,37.57
2018-03-02T11:18:52.287Z,33.97
2018-03-02T11:21:19.914Z,39.00
2018-03-02T11:23:48.298Z,44.63
2018-03-02T11:26:16.671Z,34.40
2018-03-02T11:28:45.063Z,43.67
2018-03-02T11:31:12.666Z,40.20
2018-03-02T11:33:40.280Z,47.17
2018-03-02T11:36:07.946Z,44.03
2018-03-02T11:38:35.548Z,35.53
2018-03-02T11:41:03.144Z,35.63
2018-03-02T11:43:31.539Z,41.43
2018-03-02T11:45:59.862Z,36.13
2018-03-02T11:48:27.462Z,37.17
2018-03-02T11:50:56.263Z,40.60
2018-03-02T11:53:23.914Z,38.87
2018-03-02T11:55:52.323Z,36.47
2018-03-02T11:58:19.918Z,34.83
2018-03-02T12:00:47.526Z,37.50
2018-03-02T12:03:15.192Z,38.50
2018-03-02T12:05:42.800Z,38.00
2018-03-02T12:08:10.411Z,32.33
2018-03-02T12:10:38.145Z,36.80
2018-03-02T12:13:05.728Z,32.97
2018-03-02T12:15:33.393Z,31.93
2018-03-02T12:18:01.029Z,31.40
2018-03-02T12:20:29.393Z,37.07
2018-03-02T12:22:57.054Z,36.43
2018-03-02T12:25:25.465Z,33.13
2018-03-02T12:27:53.134Z,36.87
2018-03-02T12:30:20.791Z,31.37
2018-03-02T12:32:48.414Z,40.67
2018-03-02T12:35:16.027Z,32.07
2018-03-02T12:37:43.686Z,36.57
2018-03-02T12:40:11.321Z,36.97
2018-03-02T12:42:39.701Z,35.60
2018-03-02T12:45:08.091Z,32.77
2018-03-02T12:47:35.753Z,36.30
2018-03-02T12:50:03.386Z,37.07
2018-03-02T12:52:31.762Z,34.70
2018-03-02T12:55:00.166Z,38.27
2018-03-02T12:57:27.801Z,37.13
2018-03-02T12:59:56.235Z,34.90
2018-03-02T13:02:23.877Z,44.77
2018-03-02T13:04:51.689Z,39.33
2018-03-02T13:07:19.331Z,34.87
2018-03-02T13:09:46.994Z,39.20
2018-03-02T13:12:14.630Z,39.77
2018-03-02T13:14:42.285Z,41.27
2018-03-02T13:17:09.951Z,38.97
2018-03-02T13:19:37.604Z,37.67
2018-03-02T13:22:05.240Z,40.03
2018-03-02T13:24:33.655Z,38.93
2018-03-02T13:27:13.054Z,42.60
2018-03-02T13:29:41.579Z,40.07
2018-03-02T13:32:09.166Z,42.13
2018-03-02T13:37:44.472Z,36.37
2018-03-02T13:40:23.984Z,35.30
2018-03-02T13:42:52.386Z,36.73
2018-03-02T13:45:20.031Z,38.60
2018-03-02T13:51:00.279Z,36.20
2018-03-02T13:53:28.658Z,38.17
2018-03-02T13:55:56.269Z,44.63
2018-03-02T13:58:23.903Z,41.03
2018-03-02T14:00:52.262Z,35.60
2018-03-02T14:03:32.035Z,36.73
2018-03-02T14:06:00.400Z,32.23
2018-03-02T14:08:28.807Z,36.20
2018-03-02T14:10:56.422Z,32.53
2018-03-02T14:13:24.163Z,36.30
2018-03-02T14:15:51.794Z,35.97
2018-03-02T14:18:19.408Z,36.03
2018-03-02T14:20:47.069Z,34.00
2018-03-02T14:23:15.477Z,35.10
2018-03-02T14:25:43.776Z,33.93
2018-03-02T14:28:11.400Z,35.33
2018-03-02T14:30:39.762Z,34.53
2018-03-02T14:33:07.343Z,33.83
2018-03-02T14:35:35.741Z,32.97
2018-03-02T14:38:03.489Z,32.83
2018-03-02T14:40:31.895Z,28.67
2018-03-02T14:42:59.486Z,37.80
2018-03-02T14:45:27.111Z,35.13
2018-03-02T14:47:54.755Z,37.33
2018-03-02T14:50:22.369Z,33.90
2018-03-02T14:52:49.958Z,37.73
2018-03-02T14:55:18.385Z,32.63
2018-03-02T14:57:45.966Z,34.33
2018-03-02T15:00:13.628Z,32.13
2018-03-02T15:02:41.230Z,36.43
2018-03-02T15:05:08.870Z,34.03
2018-03-02T15:07:37.278Z,36.73
2018-03-02T15:10:04.968Z,38.13
2018-03-02T15:12:32.560Z,34.27
2018-03-02T15:15:00.171Z,33.93
2018-03-02T15:17:27.814Z,37.13
2018-03-02T15:19:55.435Z,42.07
2018-03-02T15:22:23.026Z,36.60
2018-03-02T15:24:51.419Z,41.03
2018-03-02T15:27:19.046Z,44.67
2018-03-02T15:29:47.415Z,40.97
2018-03-02T15:32:15.138Z,39.57
2018-03-02T15:34:42.743Z,36.23
2018-03-02T15:37:11.151Z,33.23
2018-03-02T15:39:38.767Z,35.90
2018-03-02T15:42:06.571Z,37.30
2018-03-02T15:44:34.223Z,42.30
2018-03-02T15:47:03.162Z,36.17
2018-03-02T15:49:30.807Z,34.97
2018-03-02T15:51:58.454Z,34.20
2018-03-02T15:54:26.086Z,33.63
2018-03-02T15:56:54.468Z,33.67
2018-03-02T15:59:22.876Z,36.43
2018-03-02T16:01:50.508Z,32.70
2018-03-02T16:04:19.092Z,36.73
2018-03-02T16:06:47.494Z,33.83
2018-03-02T16:09:15.131Z,32.93
2018-03-02T16:11:43.514Z,36.03
2018-03-02T16:14:11.111Z,32.47
2018-03-02T16:16:38.759Z,31.37
2018-03-02T16:19:06.372Z,29.77
2018-03-02T16:21:34.014Z,38.83
2018-03-02T16:24:02.205Z,33.00
2018-03-02T16:26:29.826Z,29.17
2018-03-02T16:28:57.455Z,31.70
2018-03-02T16:31:25.135Z,29.63
2018-03-02T16:33:52.762Z,35.27
2018-03-02T16:36:21.134Z,30.67
2018-03-02T16:38:49.541Z,31.80
2018-03-02T16:41:17.993Z,25.17
2018-03-02T16:43:45.706Z,35.83
2018-03-02T16:46:15.550Z,34.13
2018-03-02T16:48:43.976Z,28.87
2018-03-02T16:51:11.616Z,32.77
2018-03-02T16:53:40.172Z,25.83
2018-03-02T16:56:07.786Z,36.20
2018-03-02T16:58:35.383Z,32.07
2018-03-02T17:01:03.260Z,32.27
2018-03-02T17:03:30.905Z,33.03
2018-03-02T17:05:58.514Z,32.93
2018-03-02T17:08:26.880Z,35.67
2018-03-02T17:10:55.295Z,32.40
2018-03-02T17:13:22.974Z,30.63
2018-03-02T17:15:50.637Z,34.50
2018-03-02T17:18:18.246Z,35.60
2018-03-02T17:20:45.968Z,28.47
2018-03-02T17:23:13.604Z,31.67
2018-03-02T17:25:41.273Z,40.90
2018-03-02T17:28:09.810Z,31.03
2018-03-02T17:30:38.182Z,31.50
2018-03-02T17:33:06.558Z,34.67
2018-03-02T17:35:34.982Z,31.93
2018-03-02T17:38:02.661Z,32.00
2018-03-02T17:40:30.282Z,29.03
2018-03-02T17:42:57.950Z,32.87
2018-03-02T17:45:25.569Z,31.20
2018-03-02T17:47:53.173Z,33.87
2018-03-02T17:50:20.892Z,29.13
2018-03-02T17:52:48.486Z,32.37
2018-03-02T17:55:16.669Z,38.03
2018-03-02T17:57:44.272Z,38.10
2018-03-02T18:00:11.945Z,30.30
2018-03-02T18:02:40.426Z,36.00
2018-03-02T18:05:08.802Z,30.87
2018-03-02T18:07:37.174Z,29.20
2018-03-02T18:10:04.844Z,32.37
2018-03-02T18:12:33.246Z,41.30
2018-03-02T18:15:00.874Z,38.20
2018-03-02T18:17:29.998Z,32.67
2018-03-02T18:19:57.593Z,34.03
2018-03-02T18:22:25.275Z,31.00
2018-03-02T18:24:53.779Z,32.10
2018-03-02T18:27:22.160Z,33.47
2018-03-02T18:29:50.566Z,30.80
2018-03-02T18:32:18.217Z,40.60
2018-03-02T18:34:45.844Z,36.40
2018-03-02T18:37:13.442Z,36.83
2018-03-02T18:39:41.086Z,31.63
2018-03-02T18:42:08.690Z,33.33
2018-03-02T18:44:37.229Z,31.97
2018-03-02T18:47:05.609Z,33.00
2018-03-02T18:49:33.977Z,38.83
2018-03-02T18:52:02.366Z,34.93
2018-03-02T18:54:30.734Z,37.50
2018-03-02T18:56:59.126Z,40.93
2018-03-02T18:59:28.096Z,32.77
2018-03-02T19:01:55.721Z,38.53
2018-03-02T19:04:23.322Z,36.57
2018-03-02T19:06:51.727Z,39.70
2018-03-02T19:09:19.354Z,38.47
2018-03-02T19:11:47.043Z,32.43
2018-03-02T19:14:14.922Z,37.17
2018-03-02T19:16:42.575Z,38.60
2018-03-02T19:19:10.195Z,36.30
2018-03-02T19:21:37.822Z,37.57
2018-03-02T19:24:05.467Z,39.50
2018-03-02T19:26:33.794Z,38.17
2018-03-02T19:29:01.567Z,43.93
2018-03-02T19:31:30.467Z,38.77
2018-03-02T19:33:58.377Z,40.40
2018-03-02T19:36:26.244Z,39.63
2018-03-02T19:38:54.268Z,46.97
2018-03-02T19:41:22.078Z,46.07
2018-03-02T19:43:50.025Z,45.03
2018-03-02T19:46:17.912Z,38.40
2018-03-02T19:48:45.983Z,39.73
2018-03-02T19:51:13.747Z,38.00
2018-03-02T19:53:41.717Z,48.77
2018-03-02T19:56:09.798Z,41.83
2018-03-02T19:58:37.700Z,39.13
2018-03-02T20:01:06.306Z,41.60
2018-03-02T20:03:33.996Z,43.93
2018-03-02T20:06:01.759Z,38.57
2018-03-02T20:08:29.372Z,49.53
2018-03-02T20:10:57.783Z,47.97
2018-03-02T20:13:25.604Z,40.43
2018-03-02T20:15:54.249Z,41.53
2018-03-02T20:18:22.037Z,42.03
2018-03-02T20:20:49.663Z,48.07
2018-03-02T20:23:17.307Z,44.33
2018-03-02T20:25:44.955Z,43.43
2018-03-02T20:28:12.631Z,43.40
2018-03-02T20:30:40.484Z,40.57
2018-03-02T20:33:08.160Z,48.10
2018-03-02T20:35:35.763Z,48.97
2018-03-02T20:38:03.412Z,43.70
2018-03-02T20:40:31.071Z,49.67
2018-03-02T20:42:58.734Z,46.27
2018-03-02T20:45:26.372Z,43.03
2018-03-02T20:47:54.035Z,44.17
2018-03-02T20:50:21.898Z,46.67
2018-03-02T20:52:49.582Z,50.90
2018-03-02T20:55:17.219Z,46.70
2018-03-02T20:57:44.859Z,43.43
2018-03-02T21:00:12.447Z,41.30
2018-03-02T21:02:40.113Z,42.90
2018-03-02T21:05:07.708Z,42.03
2018-03-02T21:07:36.086Z,39.80
2018-03-02T21:10:03.723Z,50.37
2018-03-02T21:12:31.319Z,42.73
2018-03-02T21:14:59.732Z,42.73
2018-03-02T21:17:27.366Z,45.30
2018-03-02T21:19:54.992Z,41.20
2018-03-02T21:22:22.641Z,43.43
2018-03-02T21:24:50.258Z,44.73
2018-03-02T21:27:17.987Z,47.30
2018-03-02T21:29:45.724Z,47.70
2018-03-02T21:32:13.390Z,39.87
2018-03-02T21:34:40.990Z,41.50
2018-03-02T21:37:09.460Z,39.37
2018-03-02T21:39:37.834Z,41.67
2018-03-02T21:42:06.211Z,46.23
2018-03-02T21:44:34.760Z,46.73
2018-03-02T21:47:02.452Z,41.27
2018-03-02T21:49:30.121Z,40.87
2018-03-02T21:51:57.868Z,45.00
2018-03-02T21:54:25.525Z,41.47
2018-03-02T21:56:53.667Z,41.70
2018-03-02T21:59:21.394Z,45.47
2018-03-02T22:01:49.934Z,41.37
2018-03-02T22:04:17.725Z,35.67
2018-03-02T22:06:46.119Z,47.20
2018-03-02T22:09:14.506Z,48.67
2018-03-02T22:11:42.149Z,43.87
2018-03-02T22:14:10.566Z,40.00
2018-03-02T22:16:38.196Z,52.30
2018-03-02T22:19:06.694Z,42.63
2018-03-02T22:21:35.037Z,46.27
2018-03-02T22:24:03.474Z,46.00
2018-03-02T22:26:31.282Z,48.07
2018-03-02T22:28:58.884Z,41.73
2018-03-02T22:31:26.594Z,46.60
2018-03-02T22:33:55.514Z,49.70
2018-03-02T22:36:23.866Z,43.03
2018-03-02T22:38:51.898Z,44.07
2018-03-02T22:41:19.684Z,50.07
2018-03-02T22:43:47.535Z,42.17
2018-03-02T22:46:15.202Z,45.33
2018-03-02T22:48:42.862Z,48.20
2018-03-02T22:51:10.568Z,48.13
2018-03-02T22:53:38.216Z,40.80
2018-03-02T22:56:06.685Z,46.90
2018-03-02T22:58:35.217Z,49.47
2018-03-02T23:01:02.817Z,50.47
2018-03-02T23:03:30.603Z,48.73
2018-03-02T23:05:59.911Z,43.03
2018-03-02T23:08:28.557Z,47.23
2018-03-02T23:10:56.370Z,42.37
2018-03-02T23:13:24.789Z,47.03
2018-03-02T23:15:52.940Z,50.23
2018-03-02T23:18:20.619Z,50.33
2018-03-02T23:20:48.278Z,51.63
2018-03-02T23:23:15.930Z,52.97
2018-03-02T23:25:43.586Z,48.47
2018-03-02T23:28:11.199Z,45.47
2018-03-02T23:30:38.796Z,42.60
2018-03-02T23:33:06.488Z,46.27
2018-03-02T23:35:34.152Z,45.37
2018-03-02T23:38:01.766Z,44.93
2018-03-02T23:40:30.171Z,48.90
2018-03-02T23:42:57.813Z,46.97
2018-03-02T23:45:25.478Z,49.17
2018-03-02T23:47:53.066Z,47.17
2018-03-02T23:50:20.735Z,54.27
2018-03-02T23:52:48.368Z,45.83
2018-03-02T23:55:15.967Z,48.83
2018-03-02T23:57:43.656Z,48.60
